sensor_id;sensor_type;location;lat;lon;timestamp;pressure;altitude;pressure_sealevel;temperature;humidity
61757;BME280;57225;61.460;24.060;2023-12-20T00:02:28;96824.47;;;-0.21;100.00
61757;BME280;57225;61.460;24.060;2023-12-20T00:05:13;96841.19;;;-0.15;100.00
61757;BME280;57225;61.460;24.060;2023-12-20T00:07:58;96841.03;;;-0.05;100.00
61757;BME280;57225;61.460;24.060;2023-12-20T00:10:43;96839.91;;;-0.07;100.00
61757;BME280;57225;61.460;24.060;2023-12-20T00:13:28;96835.16;;;-0.03;100.00
61757;BME280;57225;61.460;24.060;2023-12-20T00:16:12;96831.59;;;0.00;100.00
61757;BME280;57225;61.460;24.060;2023-12-20T00:18:56;96839.38;;;0.02;100.00
61757;BME280;57225;61.460;24.060;2023-12-20T00:21:41;96821.25;;;0.11;100.00
61757;BME280;57225;61.460;24.060;2023-12-20T00:24:26;96818.16;;;0.09;100.00
61757;BME280;57225;61.460;24.060;2023-12-20T00:27:10;96819.34;;;0.08;100.00
61757;BME280;57225;61.460;24.060;2023-12-20T00:29:55;96832.91;;;0.15;100.00
61757;BME280;57225;61.460;24.060;2023-12-20T00:32:39;96823.50;;;0.16;100.00
61757;BME280;57225;61.460;24.060;2023-12-20T00:35:30;96821.97;;;0.15;100.00
61757;BME280;57225;61.460;24.060;2023-12-20T00:38:14;96807.47;;;0.18;100.00
61757;BME280;57225;61.460;24.060;2023-12-20T00:40:59;96819.47;;;0.24;100.00
61757;BME280;57225;61.460;24.060;2023-12-20T00:43:43;96785.31;;;0.09;100.00
61757;BME280;57225;61.460;24.060;2023-12-20T00:46:28;96807.22;;;0.32;100.00
61757;BME280;57225;61.460;24.060;2023-12-20T00:49:13;96809.59;;;0.30;100.00
61757;BME280;57225;61.460;24.060;2023-12-20T00:51:57;96817.81;;;0.30;100.00
61757;BME280;57225;61.460;24.060;2023-12-20T00:54:42;96811.97;;;0.28;100.00
61757;BME280;57225;61.460;24.060;2023-12-20T00:57:26;96820.91;;;0.32;100.00
61757;BME280;57225;61.460;24.060;2023-12-20T01:00:11;96812.34;;;0.30;100.00
61757;BME280;57225;61.460;24.060;2023-12-20T01:02:57;96817.88;;;0.27;100.00
61757;BME280;57225;61.460;24.060;2023-12-20T01:05:42;96826.50;;;0.25;100.00
61757;BME280;57225;61.460;24.060;2023-12-20T01:08:26;96826.97;;;0.20;100.00
61757;BME280;57225;61.460;24.060;2023-12-20T01:11:10;96820.25;;;0.25;100.00
61757;BME280;57225;61.460;24.060;2023-12-20T01:13:55;96823.41;;;0.23;100.00
61757;BME280;57225;61.460;24.060;2023-12-20T01:16:39;96824.97;;;0.24;100.00
61757;BME280;57225;61.460;24.060;2023-12-20T01:19:24;96819.81;;;0.26;100.00
61757;BME280;57225;61.460;24.060;2023-12-20T01:22:09;96829.22;;;0.25;100.00
61757;BME280;57225;61.460;24.060;2023-12-20T01:24:54;96817.94;;;0.23;100.00
61757;BME280;57225;61.460;24.060;2023-12-20T01:27:38;96817.56;;;0.21;100.00
61757;BME280;57225;61.460;24.060;2023-12-20T01:30:22;96823.56;;;0.13;100.00
61757;BME280;57225;61.460;24.060;2023-12-20T01:33:07;96833.75;;;0.12;100.00
61757;BME280;57225;61.460;24.060;2023-12-20T01:35:51;96821.19;;;0.15;100.00
61757;BME280;57225;61.460;24.060;2023-12-20T01:38:36;96820.81;;;0.13;100.00
61757;BME280;57225;61.460;24.060;2023-12-20T01:41:20;96818.84;;;0.13;100.00
61757;BME280;57225;61.460;24.060;2023-12-20T01:44:05;96820.47;;;0.11;100.00
61757;BME280;57225;61.460;24.060;2023-12-20T01:46:49;96828.31;;;0.09;100.00
61757;BME280;57225;61.460;24.060;2023-12-20T01:49:34;96829.03;;;0.13;100.00
61757;BME280;57225;61.460;24.060;2023-12-20T01:52:19;96835.66;;;0.15;100.00
61757;BME280;57225;61.460;24.060;2023-12-20T01:55:05;96843.16;;;0.11;100.00
61757;BME280;57225;61.460;24.060;2023-12-20T01:57:57;96839.94;;;0.16;100.00
61757;BME280;57225;61.460;24.060;2023-12-20T02:00:42;96843.38;;;0.20;100.00
61757;BME280;57225;61.460;24.060;2023-12-20T02:03:27;96834.41;;;0.20;100.00
61757;BME280;57225;61.460;24.060;2023-12-20T02:06:12;96843.06;;;0.18;100.00
61757;BME280;57225;61.460;24.060;2023-12-20T02:08:57;96839.47;;;0.21;100.00
61757;BME280;57225;61.460;24.060;2023-12-20T02:11:43;96839.16;;;0.16;100.00
61757;BME280;57225;61.460;24.060;2023-12-20T02:14:28;96849.34;;;0.15;100.00
61757;BME280;57225;61.460;24.060;2023-12-20T02:17:12;96834.84;;;0.18;100.00
61757;BME280;57225;61.460;24.060;2023-12-20T02:19:56;96854.41;;;0.17;100.00
61757;BME280;57225;61.460;24.060;2023-12-20T02:22:41;96827.44;;;0.15;100.00
61757;BME280;57225;61.460;24.060;2023-12-20T02:25:25;96833.69;;;0.16;100.00
61757;BME280;57225;61.460;24.060;2023-12-20T02:28:10;96828.28;;;0.12;100.00
61757;BME280;57225;61.460;24.060;2023-12-20T02:30:54;96835.28;;;0.13;100.00
61757;BME280;57225;61.460;24.060;2023-12-20T02:33:39;96828.63;;;0.14;100.00
61757;BME280;57225;61.460;24.060;2023-12-20T02:36:26;96835.19;;;0.20;100.00
61757;BME280;57225;61.460;24.060;2023-12-20T02:39:10;96840.19;;;0.25;100.00
61757;BME280;57225;61.460;24.060;2023-12-20T02:41:55;96847.56;;;0.28;100.00
61757;BME280;57225;61.460;24.060;2023-12-20T02:44:39;96866.03;;;0.24;100.00
61757;BME280;57225;61.460;24.060;2023-12-20T02:47:23;96854.13;;;0.34;100.00
61757;BME280;57225;61.460;24.060;2023-12-20T02:50:08;96852.94;;;0.35;100.00
61757;BME280;57225;61.460;24.060;2023-12-20T02:52:52;96860.00;;;0.33;100.00
61757;BME280;57225;61.460;24.060;2023-12-20T02:55:37;96871.75;;;0.33;100.00
61757;BME280;57225;61.460;24.060;2023-12-20T02:58:21;96863.81;;;0.39;100.00
61757;BME280;57225;61.460;24.060;2023-12-20T03:01:06;96865.44;;;0.36;100.00
61757;BME280;57225;61.460;24.060;2023-12-20T03:03:50;96874.00;;;0.38;100.00
61757;BME280;57225;61.460;24.060;2023-12-20T03:06:35;96879.81;;;0.44;100.00
61757;BME280;57225;61.460;24.060;2023-12-20T03:09:19;96886.47;;;0.43;100.00
61757;BME280;57225;61.460;24.060;2023-12-20T03:12:04;96890.81;;;0.40;100.00
61757;BME280;57225;61.460;24.060;2023-12-20T03:14:48;96889.56;;;0.45;100.00
61757;BME280;57225;61.460;24.060;2023-12-20T03:17:33;96895.41;;;0.47;100.00
61757;BME280;57225;61.460;24.060;2023-12-20T03:20:18;96896.56;;;0.50;100.00
61757;BME280;57225;61.460;24.060;2023-12-20T03:23:03;96911.84;;;0.47;100.00
61757;BME280;57225;61.460;24.060;2023-12-20T03:25:47;96903.56;;;0.51;100.00
61757;BME280;57225;61.460;24.060;2023-12-20T03:28:32;96909.09;;;0.47;100.00
61757;BME280;57225;61.460;24.060;2023-12-20T03:31:16;96919.25;;;0.50;100.00
61757;BME280;57225;61.460;24.060;2023-12-20T03:34:01;96878.16;;;0.23;100.00
61757;BME280;57225;61.460;24.060;2023-12-20T03:36:45;96907.25;;;0.40;100.00
61757;BME280;57225;61.460;24.060;2023-12-20T03:39:32;96936.44;;;0.51;100.00
61757;BME280;57225;61.460;24.060;2023-12-20T03:42:16;96937.19;;;0.51;100.00
61757;BME280;57225;61.460;24.060;2023-12-20T03:45:01;96937.63;;;0.50;100.00
61757;BME280;57225;61.460;24.060;2023-12-20T03:47:45;96942.81;;;0.44;100.00
61757;BME280;57225;61.460;24.060;2023-12-20T03:50:30;96950.59;;;0.46;100.00
61757;BME280;57225;61.460;24.060;2023-12-20T03:53:14;96951.38;;;0.46;100.00
61757;BME280;57225;61.460;24.060;2023-12-20T03:55:59;96960.78;;;0.45;100.00
61757;BME280;57225;61.460;24.060;2023-12-20T03:58:43;96960.00;;;0.45;100.00
61757;BME280;57225;61.460;24.060;2023-12-20T04:01:28;96960.88;;;0.38;100.00
61757;BME280;57225;61.460;24.060;2023-12-20T04:04:13;96964.72;;;0.44;100.00
61757;BME280;57225;61.460;24.060;2023-12-20T04:06:58;96976.41;;;0.48;100.00
61757;BME280;57225;61.460;24.060;2023-12-20T04:09:42;96981.91;;;0.45;100.00
61757;BME280;57225;61.460;24.060;2023-12-20T04:12:30;96976.78;;;0.47;100.00
61757;BME280;57225;61.460;24.060;2023-12-20T04:15:14;96990.81;;;0.52;100.00
61757;BME280;57225;61.460;24.060;2023-12-20T04:17:59;96997.47;;;0.51;100.00
61757;BME280;57225;61.460;24.060;2023-12-20T04:20:43;97007.66;;;0.51;100.00
61757;BME280;57225;61.460;24.060;2023-12-20T04:23:28;97015.47;;;0.52;100.00
61757;BME280;57225;61.460;24.060;2023-12-20T04:26:12;97017.06;;;0.50;100.00
61757;BME280;57225;61.460;24.060;2023-12-20T04:28:56;96995.16;;;0.50;100.00
61757;BME280;57225;61.460;24.060;2023-12-20T04:31:41;97018.28;;;0.45;100.00
61757;BME280;57225;61.460;24.060;2023-12-20T04:34:25;97026.19;;;0.39;100.00
61757;BME280;57225;61.460;24.060;2023-12-20T04:37:10;97025.31;;;0.46;100.00
61757;BME280;57225;61.460;24.060;2023-12-20T04:39:54;97034.69;;;0.49;100.00
61757;BME280;57225;61.460;24.060;2023-12-20T04:42:39;97042.13;;;0.48;100.00
61757;BME280;57225;61.460;24.060;2023-12-20T04:45:23;97052.25;;;0.51;100.00
61757;BME280;57225;61.460;24.060;2023-12-20T04:48:08;97055.00;;;0.51;100.00
61757;BME280;57225;61.460;24.060;2023-12-20T04:50:53;97056.28;;;0.43;100.00
61757;BME280;57225;61.460;24.060;2023-12-20T04:53:38;97050.91;;;0.36;100.00
61757;BME280;57225;61.460;24.060;2023-12-20T04:56:22;97063.09;;;0.31;100.00
61757;BME280;57225;61.460;24.060;2023-12-20T04:59:07;97067.00;;;0.30;100.00
61757;BME280;57225;61.460;24.060;2023-12-20T05:01:51;97063.09;;;0.31;100.00
61757;BME280;57225;61.460;24.060;2023-12-20T05:04:36;97074.47;;;0.26;100.00
61757;BME280;57225;61.460;24.060;2023-12-20T05:07:20;97078.41;;;0.25;100.00
61757;BME280;57225;61.460;24.060;2023-12-20T05:10:05;97079.75;;;0.10;100.00
61757;BME280;57225;61.460;24.060;2023-12-20T05:12:49;97079.34;;;0.12;100.00
61757;BME280;57225;61.460;24.060;2023-12-20T05:15:34;97075.41;;;0.13;100.00
61757;BME280;57225;61.460;24.060;2023-12-20T05:18:20;97075.53;;;0.06;100.00
61757;BME280;57225;61.460;24.060;2023-12-20T05:21:04;97093.91;;;0.05;100.00
61757;BME280;57225;61.460;24.060;2023-12-20T05:23:48;97080.22;;;0.05;100.00
61757;BME280;57225;61.460;24.060;2023-12-20T05:26:33;97092.78;;;-0.01;100.00
61757;BME280;57225;61.460;24.060;2023-12-20T05:29:17;97094.50;;;-0.14;100.00
61757;BME280;57225;61.460;24.060;2023-12-20T05:32:02;97099.13;;;-0.11;100.00
61757;BME280;57225;61.460;24.060;2023-12-20T05:34:48;97106.16;;;-0.10;100.00
61757;BME280;57225;61.460;24.060;2023-12-20T05:37:33;97114.03;;;-0.16;100.00
61757;BME280;57225;61.460;24.060;2023-12-20T05:40:17;97116.81;;;-0.19;100.00
61757;BME280;57225;61.460;24.060;2023-12-20T05:43:02;97121.53;;;-0.23;100.00
61757;BME280;57225;61.460;24.060;2023-12-20T05:46:05;97129.00;;;-0.27;100.00
61757;BME280;57225;61.460;24.060;2023-12-20T05:48:49;97129.78;;;-0.27;100.00
61757;BME280;57225;61.460;24.060;2023-12-20T05:51:35;97137.59;;;-0.25;100.00
61757;BME280;57225;61.460;24.060;2023-12-20T05:54:20;97143.13;;;-0.32;100.00
61757;BME280;57225;61.460;24.060;2023-12-20T05:57:05;97148.63;;;-0.36;100.00
61757;BME280;57225;61.460;24.060;2023-12-20T05:59:49;97144.31;;;-0.33;100.00
61757;BME280;57225;61.460;24.060;2023-12-20T06:02:34;97136.91;;;-0.36;100.00
61757;BME280;57225;61.460;24.060;2023-12-20T06:05:20;97139.66;;;-0.40;100.00
61757;BME280;57225;61.460;24.060;2023-12-20T06:08:05;97125.38;;;-0.58;100.00
61757;BME280;57225;61.460;24.060;2023-12-20T06:10:50;97145.59;;;-0.45;100.00
61757;BME280;57225;61.460;24.060;2023-12-20T06:13:34;97146.78;;;-0.50;100.00
61757;BME280;57225;61.460;24.060;2023-12-20T06:16:19;97155.78;;;-0.53;100.00
61757;BME280;57225;61.460;24.060;2023-12-20T06:19:04;97160.88;;;-0.55;100.00
61757;BME280;57225;61.460;24.060;2023-12-20T06:21:49;97163.66;;;-0.62;100.00
61757;BME280;57225;61.460;24.060;2023-12-20T06:24:33;97180.09;;;-0.65;100.00
61757;BME280;57225;61.460;24.060;2023-12-20T06:27:18;97184.03;;;-0.70;100.00
61757;BME280;57225;61.460;24.060;2023-12-20T06:30:04;97189.91;;;-0.75;100.00
61757;BME280;57225;61.460;24.060;2023-12-20T06:32:49;97196.59;;;-0.76;100.00
61757;BME280;57225;61.460;24.060;2023-12-20T06:35:34;97200.09;;;-0.79;100.00
61757;BME280;57225;61.460;24.060;2023-12-20T06:38:18;97206.00;;;-0.84;100.00
61757;BME280;57225;61.460;24.060;2023-12-20T06:41:03;97208.34;;;-0.83;100.00
61757;BME280;57225;61.460;24.060;2023-12-20T06:43:47;97220.06;;;-0.86;100.00
61757;BME280;57225;61.460;24.060;2023-12-20T06:46:32;97195.94;;;-1.01;100.00
61757;BME280;57225;61.460;24.060;2023-12-20T06:49:16;97229.41;;;-0.87;100.00
61757;BME280;57225;61.460;24.060;2023-12-20T06:52:02;97230.63;;;-0.91;100.00
61757;BME280;57225;61.460;24.060;2023-12-20T06:54:47;97234.94;;;-0.97;100.00
61757;BME280;57225;61.460;24.060;2023-12-20T06:57:31;97238.84;;;-0.98;100.00
61757;BME280;57225;61.460;24.060;2023-12-20T07:00:16;97240.84;;;-1.02;100.00
61757;BME280;57225;61.460;24.060;2023-12-20T07:03:01;97241.97;;;-0.96;100.00
61757;BME280;57225;61.460;24.060;2023-12-20T07:05:46;97251.75;;;-0.95;100.00
61757;BME280;57225;61.460;24.060;2023-12-20T07:08:30;97248.25;;;-1.03;100.00
61757;BME280;57225;61.460;24.060;2023-12-20T07:11:14;97262.31;;;-1.04;100.00
61757;BME280;57225;61.460;24.060;2023-12-20T07:13:59;97270.91;;;-1.09;100.00
61757;BME280;57225;61.460;24.060;2023-12-20T07:16:45;97265.81;;;-1.07;100.00
61757;BME280;57225;61.460;24.060;2023-12-20T07:19:30;97276.38;;;-1.09;100.00
61757;BME280;57225;61.460;24.060;2023-12-20T07:22:14;97272.84;;;-1.03;100.00
61757;BME280;57225;61.460;24.060;2023-12-20T07:24:59;97282.59;;;-1.05;100.00
61757;BME280;57225;61.460;24.060;2023-12-20T07:27:43;97280.25;;;-1.03;100.00
61757;BME280;57225;61.460;24.060;2023-12-20T07:30:28;97286.88;;;-0.97;100.00
61757;BME280;57225;61.460;24.060;2023-12-20T07:33:12;97276.75;;;-1.04;100.00
61757;BME280;57225;61.460;24.060;2023-12-20T07:35:57;97281.84;;;-1.09;100.00
61757;BME280;57225;61.460;24.060;2023-12-20T07:38:43;97289.66;;;-1.11;100.00
61757;BME280;57225;61.460;24.060;2023-12-20T07:41:28;97289.25;;;-1.03;100.00
61757;BME280;57225;61.460;24.060;2023-12-20T07:44:12;97291.22;;;-1.10;100.00
61757;BME280;57225;61.460;24.060;2023-12-20T07:46:57;97294.34;;;-1.12;100.00
61757;BME280;57225;61.460;24.060;2023-12-20T07:49:42;97292.78;;;-1.13;100.00
61757;BME280;57225;61.460;24.060;2023-12-20T07:52:26;97293.97;;;-1.14;100.00
61757;BME280;57225;61.460;24.060;2023-12-20T07:55:11;97297.84;;;-1.11;100.00
61757;BME280;57225;61.460;24.060;2023-12-20T07:57:57;97292.78;;;-1.20;100.00
61757;BME280;57225;61.460;24.060;2023-12-20T08:00:41;97304.13;;;-1.14;100.00
61757;BME280;57225;61.460;24.060;2023-12-20T08:03:26;97319.72;;;-1.18;100.00
61757;BME280;57225;61.460;24.060;2023-12-20T08:06:10;97332.59;;;-1.19;100.00
61757;BME280;57225;61.460;24.060;2023-12-20T08:08:55;97320.50;;;-1.25;100.00
61757;BME280;57225;61.460;24.060;2023-12-20T08:11:39;97338.06;;;-1.15;100.00
61757;BME280;57225;61.460;24.060;2023-12-20T08:14:24;97343.91;;;-1.17;100.00
61757;BME280;57225;61.460;24.060;2023-12-20T08:17:08;97347.03;;;-1.11;100.00
61757;BME280;57225;61.460;24.060;2023-12-20T08:19:53;97346.25;;;-1.12;100.00
61757;BME280;57225;61.460;24.060;2023-12-20T08:22:37;97354.81;;;-1.13;100.00
61757;BME280;57225;61.460;24.060;2023-12-20T08:25:22;97349.75;;;-1.11;100.00
61757;BME280;57225;61.460;24.060;2023-12-20T08:28:06;97356.78;;;-1.10;100.00
61757;BME280;57225;61.460;24.060;2023-12-20T08:30:51;97367.31;;;-1.05;100.00
61757;BME280;57225;61.460;24.060;2023-12-20T08:33:37;97365.78;;;-1.10;100.00
61757;BME280;57225;61.460;24.060;2023-12-20T08:36:21;97373.97;;;-1.03;100.00
61757;BME280;57225;61.460;24.060;2023-12-20T08:39:07;97380.19;;;-0.99;100.00
61757;BME280;57225;61.460;24.060;2023-12-20T08:41:52;97389.97;;;-1.01;100.00
61757;BME280;57225;61.460;24.060;2023-12-20T08:44:36;97388.41;;;-1.02;100.00
61757;BME280;57225;61.460;24.060;2023-12-20T08:47:21;97391.91;;;-1.05;100.00
61757;BME280;57225;61.460;24.060;2023-12-20T08:50:06;97405.56;;;-0.98;100.00
61757;BME280;57225;61.460;24.060;2023-12-20T08:52:50;97402.84;;;-1.02;100.00
61757;BME280;57225;61.460;24.060;2023-12-20T08:55:35;97406.75;;;-1.06;100.00
61757;BME280;57225;61.460;24.060;2023-12-20T08:58:19;97412.59;;;-1.11;100.00
61757;BME280;57225;61.460;24.060;2023-12-20T09:01:04;97421.59;;;-1.11;100.00
61757;BME280;57225;61.460;24.060;2023-12-20T09:03:48;97407.94;;;-1.14;100.00
61757;BME280;57225;61.460;24.060;2023-12-20T09:06:33;97417.66;;;-1.13;100.00
61757;BME280;57225;61.460;24.060;2023-12-20T09:09:17;97415.75;;;-1.09;100.00
61757;BME280;57225;61.460;24.060;2023-12-20T09:12:02;97420.00;;;-1.05;100.00
61757;BME280;57225;61.460;24.060;2023-12-20T09:14:48;97423.13;;;-1.06;100.00
61757;BME280;57225;61.460;24.060;2023-12-20T09:17:33;97414.56;;;-1.08;100.00
61757;BME280;57225;61.460;24.060;2023-12-20T09:20:17;97423.16;;;-1.03;100.00
61757;BME280;57225;61.460;24.060;2023-12-20T09:23:02;97406.75;;;-1.13;100.00
61757;BME280;57225;61.460;24.060;2023-12-20T09:25:46;97416.13;;;-1.04;100.00
61757;BME280;57225;61.460;24.060;2023-12-20T09:28:31;97426.63;;;-0.85;100.00
61757;BME280;57225;61.460;24.060;2023-12-20T09:31:20;97424.66;;;-0.88;100.00
61757;BME280;57225;61.460;24.060;2023-12-20T09:34:05;97429.34;;;-0.88;100.00
61757;BME280;57225;61.460;24.060;2023-12-20T09:36:49;97434.44;;;-0.87;100.00
61757;BME280;57225;61.460;24.060;2023-12-20T09:39:34;97439.88;;;-0.79;100.00
61757;BME280;57225;61.460;24.060;2023-12-20T09:45:24;97450.44;;;-0.82;100.00
61757;BME280;57225;61.460;24.060;2023-12-20T09:48:10;97460.97;;;-0.73;100.00
61757;BME280;57225;61.460;24.060;2023-12-20T09:50:57;97467.63;;;-0.81;100.00
61757;BME280;57225;61.460;24.060;2023-12-20T09:53:42;97471.91;;;-0.80;100.00
61757;BME280;57225;61.460;24.060;2023-12-20T09:56:27;97473.09;;;-0.81;100.00
61757;BME280;57225;61.460;24.060;2023-12-20T09:59:11;97471.91;;;-0.87;100.00
61757;BME280;57225;61.460;24.060;2023-12-20T10:01:56;97468.41;;;-0.88;100.00
61757;BME280;57225;61.460;24.060;2023-12-20T10:04:46;97480.13;;;-0.73;100.00
61757;BME280;57225;61.460;24.060;2023-12-20T10:07:32;97481.28;;;-0.74;100.00
61757;BME280;57225;61.460;24.060;2023-12-20T10:10:16;97489.47;;;-0.67;100.00
61757;BME280;57225;61.460;24.060;2023-12-20T10:13:09;97494.56;;;-0.58;100.00
61757;BME280;57225;61.460;24.060;2023-12-20T10:15:55;97491.03;;;-0.59;100.00
61757;BME280;57225;61.460;24.060;2023-12-20T10:18:40;97487.50;;;-0.63;100.00
61757;BME280;57225;61.460;24.060;2023-12-20T10:21:24;97504.69;;;-0.45;100.00
61757;BME280;57225;61.460;24.060;2023-12-20T10:24:17;97498.81;;;-0.47;100.00
61757;BME280;57225;61.460;24.060;2023-12-20T10:29:51;97496.50;;;-0.66;100.00
61757;BME280;57225;61.460;24.060;2023-12-20T10:32:35;97504.28;;;-0.47;100.00
61757;BME280;57225;61.460;24.060;2023-12-20T10:35:20;97498.84;;;-0.54;100.00
61757;BME280;57225;61.460;24.060;2023-12-20T10:38:05;97501.94;;;-0.55;100.00
61757;BME280;57225;61.460;24.060;2023-12-20T10:40:54;97500.00;;;-0.48;100.00
61757;BME280;57225;61.460;24.060;2023-12-20T10:43:38;97508.13;;;-0.19;100.00
61757;BME280;57225;61.460;24.060;2023-12-20T10:46:24;97501.09;;;-0.20;100.00
61757;BME280;57225;61.460;24.060;2023-12-20T10:49:10;97501.88;;;-0.23;100.00
61757;BME280;57225;61.460;24.060;2023-12-20T10:51:55;97503.00;;;-0.03;100.00
61757;BME280;57225;61.460;24.060;2023-12-20T10:54:42;97501.00;;;0.01;100.00
61757;BME280;57225;61.460;24.060;2023-12-20T10:57:27;97504.16;;;-0.04;100.00
61757;BME280;57225;61.460;24.060;2023-12-20T11:00:14;97517.16;;;-0.29;100.00
61757;BME280;57225;61.460;24.060;2023-12-20T11:03:01;97518.69;;;-0.21;100.00
61757;BME280;57225;61.460;24.060;2023-12-20T11:05:50;97513.19;;;-0.07;100.00
61757;BME280;57225;61.460;24.060;2023-12-20T11:08:52;97522.91;;;0.01;100.00
61757;BME280;57225;61.460;24.060;2023-12-20T11:14:47;97535.44;;;-0.02;100.00
61757;BME280;57225;61.460;24.060;2023-12-20T11:17:32;97536.25;;;-0.08;100.00
61757;BME280;57225;61.460;24.060;2023-12-20T11:20:17;97535.41;;;0.02;100.00
61757;BME280;57225;61.460;24.060;2023-12-20T11:23:02;97540.53;;;-0.04;100.00
61757;BME280;57225;61.460;24.060;2023-12-20T11:25:55;97548.41;;;-0.27;100.00
61757;BME280;57225;61.460;24.060;2023-12-20T11:28:41;97536.28;;;-0.29;100.00
61757;BME280;57225;61.460;24.060;2023-12-20T11:31:26;97537.09;;;-0.25;100.00
61757;BME280;57225;61.460;24.060;2023-12-20T11:34:14;97542.56;;;-0.25;100.00
61757;BME280;57225;61.460;24.060;2023-12-20T11:37:02;97540.59;;;-0.21;100.00
61757;BME280;57225;61.460;24.060;2023-12-20T11:39:56;97541.72;;;-0.19;100.00
61757;BME280;57225;61.460;24.060;2023-12-20T11:42:45;97548.78;;;-0.25;100.00
61757;BME280;57225;61.460;24.060;2023-12-20T11:45:54;97548.81;;;-0.28;100.00
61757;BME280;57225;61.460;24.060;2023-12-20T11:48:39;97539.44;;;-0.42;100.00
61757;BME280;57225;61.460;24.060;2023-12-20T11:51:27;97542.59;;;-0.54;100.00
61757;BME280;57225;61.460;24.060;2023-12-20T11:54:15;97520.72;;;-0.68;100.00
61757;BME280;57225;61.460;24.060;2023-12-20T11:56:59;97534.41;;;-0.82;100.00
61757;BME280;57225;61.460;24.060;2023-12-20T11:59:44;97534.00;;;-0.88;100.00
61757;BME280;57225;61.460;24.060;2023-12-20T12:02:28;97538.69;;;-0.88;100.00
61757;BME280;57225;61.460;24.060;2023-12-20T12:05:13;97533.63;;;-1.00;100.00
61757;BME280;57225;61.460;24.060;2023-12-20T12:07:58;97542.59;;;-1.03;100.00
61757;BME280;57225;61.460;24.060;2023-12-20T12:10:44;97539.06;;;-1.22;100.00
61757;BME280;57225;61.460;24.060;2023-12-20T12:13:29;97540.22;;;-1.26;100.00
61757;BME280;57225;61.460;24.060;2023-12-20T12:16:17;97538.69;;;-1.27;100.00
61757;BME280;57225;61.460;24.060;2023-12-20T12:19:03;97544.13;;;-1.34;100.00
61757;BME280;57225;61.460;24.060;2023-12-20T12:21:49;97547.59;;;-1.48;100.00
61757;BME280;57225;61.460;24.060;2023-12-20T12:24:34;97548.75;;;-1.45;100.00
61757;BME280;57225;61.460;24.060;2023-12-20T12:27:18;97534.72;;;-1.54;100.00
61757;BME280;57225;61.460;24.060;2023-12-20T12:30:04;97539.34;;;-1.69;100.00
61757;BME280;57225;61.460;24.060;2023-12-20T12:32:52;97538.13;;;-1.82;100.00
61757;BME280;57225;61.460;24.060;2023-12-20T12:35:36;97536.94;;;-1.88;100.00
61757;BME280;57225;61.460;24.060;2023-12-20T12:38:21;97534.16;;;-1.95;100.00
61757;BME280;57225;61.460;24.060;2023-12-20T12:41:06;97539.63;;;-2.03;100.00
61757;BME280;57225;61.460;24.060;2023-12-20T12:43:51;97545.09;;;-2.03;100.00
61757;BME280;57225;61.460;24.060;2023-12-20T12:46:35;97546.22;;;-2.11;100.00
61757;BME280;57225;61.460;24.060;2023-12-20T12:49:20;97550.53;;;-2.03;100.00
61757;BME280;57225;61.460;24.060;2023-12-20T12:52:05;97550.09;;;-2.08;100.00
61757;BME280;57225;61.460;24.060;2023-12-20T12:54:50;97548.91;;;-2.18;100.00
61757;BME280;57225;61.460;24.060;2023-12-20T12:57:34;97555.09;;;-2.24;100.00
61757;BME280;57225;61.460;24.060;2023-12-20T13:00:19;97550.78;;;-2.29;100.00
61757;BME280;57225;61.460;24.060;2023-12-20T13:03:03;97546.91;;;-2.28;100.00
61757;BME280;57225;61.460;24.060;2023-12-20T13:05:48;97553.84;;;-2.34;100.00
61757;BME280;57225;61.460;24.060;2023-12-20T13:08:33;97542.50;;;-2.43;100.00
61757;BME280;57225;61.460;24.060;2023-12-20T13:11:18;97550.69;;;-2.43;100.00
61757;BME280;57225;61.460;24.060;2023-12-20T13:14:02;97554.94;;;-2.49;100.00
61757;BME280;57225;61.460;24.060;2023-12-20T13:16:47;97556.88;;;-2.50;100.00
61757;BME280;57225;61.460;24.060;2023-12-20T13:19:31;97553.31;;;-2.57;100.00
61757;BME280;57225;61.460;24.060;2023-12-20T13:22:16;97552.16;;;-2.60;100.00
61757;BME280;57225;61.460;24.060;2023-12-20T13:25:00;97551.38;;;-2.60;100.00
61757;BME280;57225;61.460;24.060;2023-12-20T13:27:46;97545.88;;;-2.67;100.00
61757;BME280;57225;61.460;24.060;2023-12-20T13:30:31;97559.06;;;-2.73;100.00
61757;BME280;57225;61.460;24.060;2023-12-20T13:33:16;97553.19;;;-2.75;100.00
61757;BME280;57225;61.460;24.060;2023-12-20T13:36:00;97550.84;;;-2.76;100.00
61757;BME280;57225;61.460;24.060;2023-12-20T13:38:45;97546.94;;;-2.79;100.00
61757;BME280;57225;61.460;24.060;2023-12-20T13:41:29;97557.44;;;-2.77;100.00
61757;BME280;57225;61.460;24.060;2023-12-20T13:44:14;97559.75;;;-2.83;100.00
61757;BME280;57225;61.460;24.060;2023-12-20T13:46:58;97562.81;;;-2.92;100.00
61757;BME280;57225;61.460;24.060;2023-12-20T13:49:43;97569.69;;;-3.05;100.00
61757;BME280;57225;61.460;24.060;2023-12-20T13:52:28;97571.22;;;-3.11;100.00
61757;BME280;57225;61.460;24.060;2023-12-20T13:55:12;97578.59;;;-3.11;100.00
61757;BME280;57225;61.460;24.060;2023-12-20T13:57:57;97585.13;;;-3.19;100.00
61757;BME280;57225;61.460;24.060;2023-12-20T14:00:41;97587.31;;;-3.36;100.00
61757;BME280;57225;61.460;24.060;2023-12-20T14:03:25;97597.72;;;-3.41;100.00
61757;BME280;57225;61.460;24.060;2023-12-20T14:06:10;97599.63;;;-3.45;100.00
61757;BME280;57225;61.460;24.060;2023-12-20T14:08:54;97599.59;;;-3.49;100.00
61757;BME280;57225;61.460;24.060;2023-12-20T14:11:39;97603.41;;;-3.57;100.00
61757;BME280;57225;61.460;24.060;2023-12-20T14:14:25;97596.72;;;-3.63;100.00
61757;BME280;57225;61.460;24.060;2023-12-20T14:17:09;97601.69;;;-3.69;100.00
61757;BME280;57225;61.460;24.060;2023-12-20T14:19:53;97604.38;;;-3.72;100.00
61757;BME280;57225;61.460;24.060;2023-12-20T14:22:39;97610.09;;;-3.81;100.00
61757;BME280;57225;61.460;24.060;2023-12-20T14:25:27;97613.00;;;-3.96;100.00